METAR Data
IDs: Format: Raw Decoded Include TAF

Data at: 1253 UTC 24 May 2022

ETSN 241220Z 25005KT 9999 FEW015 SCT030 BKN070 15/12 Q1011 BLU BLU TEMPO WHT